sensor_id;sensor_type;location;lat;lon;timestamp;P1;durP1;ratioP1;P2;durP2;ratioP2
55663;SDS011;41540;57.880;12.164;2023-05-10T00:06:10;4.97;;;2.85;;
55663;SDS011;41540;57.880;12.164;2023-05-10T00:16:10;6.35;;;3.63;;
55663;SDS011;41540;57.880;12.164;2023-05-10T00:26:12;5.63;;;3.97;;
55663;SDS011;41540;57.880;12.164;2023-05-10T00:36:12;7.88;;;3.72;;
55663;SDS011;41540;57.880;12.164;2023-05-10T00:46:13;5.22;;;3.40;;
55663;SDS011;41540;57.880;12.164;2023-05-10T00:56:14;4.32;;;3.88;;
55663;SDS011;41540;57.880;12.164;2023-05-10T01:06:15;4.68;;;3.13;;
55663;SDS011;41540;57.880;12.164;2023-05-10T01:16:16;6.28;;;3.53;;
55663;SDS011;41540;57.880;12.164;2023-05-10T01:46:35;3.63;;;3.33;;
55663;SDS011;41540;57.880;12.164;2023-05-10T01:56:39;11.82;;;4.15;;
55663;SDS011;41540;57.880;12.164;2023-05-10T02:06:40;8.35;;;4.75;;
55663;SDS011;41540;57.880;12.164;2023-05-10T02:16:41;10.55;;;4.88;;
55663;SDS011;41540;57.880;12.164;2023-05-10T02:26:43;19.65;;;5.22;;
55663;SDS011;41540;57.880;12.164;2023-05-10T02:36:44;7.80;;;4.70;;
55663;SDS011;41540;57.880;12.164;2023-05-10T02:46:44;3.75;;;3.33;;
55663;SDS011;41540;57.880;12.164;2023-05-10T02:56:50;4.20;;;3.70;;
55663;SDS011;41540;57.880;12.164;2023-05-10T03:06:51;4.70;;;3.78;;
55663;SDS011;41540;57.880;12.164;2023-05-10T03:17:40;8.70;;;3.73;;
55663;SDS011;41540;57.880;12.164;2023-05-10T03:27:12;3.92;;;3.40;;
55663;SDS011;41540;57.880;12.164;2023-05-10T03:58:24;5.47;;;2.90;;
55663;SDS011;41540;57.880;12.164;2023-05-10T04:08:24;3.33;;;2.85;;
55663;SDS011;41540;57.880;12.164;2023-05-10T04:18:25;4.20;;;3.33;;
55663;SDS011;41540;57.880;12.164;2023-05-10T04:28:25;6.38;;;3.40;;
55663;SDS011;41540;57.880;12.164;2023-05-10T04:38:25;10.55;;;3.00;;
55663;SDS011;41540;57.880;12.164;2023-05-10T04:48:26;7.93;;;3.00;;
55663;SDS011;41540;57.880;12.164;2023-05-10T04:58:27;2.95;;;2.50;;
55663;SDS011;41540;57.880;12.164;2023-05-10T05:08:27;6.28;;;2.28;;
55663;SDS011;41540;57.880;12.164;2023-05-10T05:18:27;7.53;;;2.63;;
55663;SDS011;41540;57.880;12.164;2023-05-10T05:28:28;4.32;;;2.80;;
55663;SDS011;41540;57.880;12.164;2023-05-10T05:38:32;4.13;;;3.03;;
55663;SDS011;41540;57.880;12.164;2023-05-10T05:48:33;8.38;;;3.03;;
55663;SDS011;41540;57.880;12.164;2023-05-10T05:58:33;6.10;;;2.70;;
55663;SDS011;41540;57.880;12.164;2023-05-10T06:08:33;7.05;;;3.75;;
55663;SDS011;41540;57.880;12.164;2023-05-10T06:18:34;8.60;;;4.10;;
55663;SDS011;41540;57.880;12.164;2023-05-10T06:28:34;4.00;;;3.13;;
55663;SDS011;41540;57.880;12.164;2023-05-10T06:38:34;8.13;;;3.38;;
55663;SDS011;41540;57.880;12.164;2023-05-10T06:48:35;5.75;;;3.47;;
55663;SDS011;41540;57.880;12.164;2023-05-10T06:58:36;3.78;;;3.45;;
55663;SDS011;41540;57.880;12.164;2023-05-10T07:08:36;5.03;;;2.73;;
55663;SDS011;41540;57.880;12.164;2023-05-10T07:18:37;4.70;;;2.83;;
55663;SDS011;41540;57.880;12.164;2023-05-10T07:28:37;3.75;;;2.60;;
55663;SDS011;41540;57.880;12.164;2023-05-10T07:38:39;3.65;;;3.22;;
55663;SDS011;41540;57.880;12.164;2023-05-10T07:48:39;4.40;;;3.47;;
55663;SDS011;41540;57.880;12.164;2023-05-10T07:58:39;9.07;;;4.27;;
55663;SDS011;41540;57.880;12.164;2023-05-10T08:08:40;5.82;;;3.45;;
55663;SDS011;41540;57.880;12.164;2023-05-10T08:18:40;4.05;;;3.38;;
55663;SDS011;41540;57.880;12.164;2023-05-10T08:28:40;10.30;;;4.10;;
55663;SDS011;41540;57.880;12.164;2023-05-10T08:38:41;5.55;;;3.40;;
55663;SDS011;41540;57.880;12.164;2023-05-10T08:48:41;3.45;;;3.13;;
55663;SDS011;41540;57.880;12.164;2023-05-10T08:58:42;8.93;;;3.60;;
55663;SDS011;41540;57.880;12.164;2023-05-10T09:08:42;3.83;;;3.15;;
55663;SDS011;41540;57.880;12.164;2023-05-10T09:18:43;4.25;;;2.88;;
55663;SDS011;41540;57.880;12.164;2023-05-10T09:29:04;3.25;;;2.95;;
55663;SDS011;41540;57.880;12.164;2023-05-10T09:39:04;4.35;;;3.28;;
55663;SDS011;41540;57.880;12.164;2023-05-10T09:49:04;3.80;;;3.35;;
55663;SDS011;41540;57.880;12.164;2023-05-10T09:59:06;4.88;;;3.42;;
55663;SDS011;41540;57.880;12.164;2023-05-10T10:09:07;3.65;;;3.13;;
55663;SDS011;41540;57.880;12.164;2023-05-10T10:39:11;4.07;;;2.72;;
55663;SDS011;41540;57.880;12.164;2023-05-10T10:49:11;4.28;;;3.20;;
55663;SDS011;41540;57.880;12.164;2023-05-10T10:59:12;4.43;;;3.47;;
55663;SDS011;41540;57.880;12.164;2023-05-10T11:09:12;6.10;;;3.05;;
55663;SDS011;41540;57.880;12.164;2023-05-10T11:29:13;5.72;;;2.95;;
55663;SDS011;41540;57.880;12.164;2023-05-10T11:39:13;6.53;;;2.60;;
55663;SDS011;41540;57.880;12.164;2023-05-10T11:49:13;4.78;;;3.38;;
55663;SDS011;41540;57.880;12.164;2023-05-10T11:59:14;5.00;;;2.88;;
55663;SDS011;41540;57.880;12.164;2023-05-10T12:19:18;2.38;;;2.15;;
55663;SDS011;41540;57.880;12.164;2023-05-10T12:29:18;4.90;;;2.30;;
55663;SDS011;41540;57.880;12.164;2023-05-10T12:39:19;4.97;;;2.88;;
55663;SDS011;41540;57.880;12.164;2023-05-10T12:49:19;6.00;;;2.27;;
55663;SDS011;41540;57.880;12.164;2023-05-10T12:59:19;2.77;;;2.50;;
55663;SDS011;41540;57.880;12.164;2023-05-10T13:09:19;10.70;;;2.23;;
55663;SDS011;41540;57.880;12.164;2023-05-10T13:19:20;4.60;;;2.37;;
55663;SDS011;41540;57.880;12.164;2023-05-10T13:29:20;3.60;;;2.50;;
55663;SDS011;41540;57.880;12.164;2023-05-10T13:39:22;4.32;;;2.67;;
55663;SDS011;41540;57.880;12.164;2023-05-10T13:49:22;2.57;;;2.20;;
55663;SDS011;41540;57.880;12.164;2023-05-10T13:59:23;3.40;;;2.23;;
55663;SDS011;41540;57.880;12.164;2023-05-10T14:09:23;3.97;;;2.13;;
55663;SDS011;41540;57.880;12.164;2023-05-10T14:19:23;10.30;;;2.63;;
55663;SDS011;41540;57.880;12.164;2023-05-10T14:29:23;3.17;;;2.53;;
55663;SDS011;41540;57.880;12.164;2023-05-10T14:39:24;3.20;;;2.30;;
55663;SDS011;41540;57.880;12.164;2023-05-10T14:49:24;8.53;;;2.30;;
55663;SDS011;41540;57.880;12.164;2023-05-10T14:59:25;4.68;;;2.63;;
55663;SDS011;41540;57.880;12.164;2023-05-10T15:09:26;5.73;;;2.30;;
55663;SDS011;41540;57.880;12.164;2023-05-10T15:19:27;3.47;;;1.90;;
55663;SDS011;41540;57.880;12.164;2023-05-10T15:29:29;14.60;;;3.15;;
55663;SDS011;41540;57.880;12.164;2023-05-10T15:39:29;1.77;;;1.67;;
55663;SDS011;41540;57.880;12.164;2023-05-10T15:49:29;2.95;;;2.30;;
55663;SDS011;41540;57.880;12.164;2023-05-10T15:59:31;6.47;;;2.35;;
55663;SDS011;41540;57.880;12.164;2023-05-10T16:09:31;7.32;;;2.47;;
55663;SDS011;41540;57.880;12.164;2023-05-10T16:19:32;3.78;;;2.50;;
55663;SDS011;41540;57.880;12.164;2023-05-10T16:29:32;3.60;;;2.30;;
55663;SDS011;41540;57.880;12.164;2023-05-10T16:39:32;3.25;;;2.55;;
55663;SDS011;41540;57.880;12.164;2023-05-10T16:49:34;2.75;;;2.28;;
55663;SDS011;41540;57.880;12.164;2023-05-10T16:59:35;4.25;;;2.03;;
55663;SDS011;41540;57.880;12.164;2023-05-10T21:13:16;5.18;;;2.92;;
55663;SDS011;41540;57.880;12.164;2023-05-10T21:23:16;5.43;;;2.70;;
55663;SDS011;41540;57.880;12.164;2023-05-10T21:33:16;6.40;;;3.50;;
55663;SDS011;41540;57.880;12.164;2023-05-10T21:43:19;3.58;;;3.05;;
55663;SDS011;41540;57.880;12.164;2023-05-10T21:53:19;3.97;;;3.58;;
55663;SDS011;41540;57.880;12.164;2023-05-10T22:03:19;12.45;;;3.97;;
55663;SDS011;41540;57.880;12.164;2023-05-10T22:55:29;6.45;;;3.25;;
55663;SDS011;41540;57.880;12.164;2023-05-10T23:05:29;4.97;;;3.75;;
55663;SDS011;41540;57.880;12.164;2023-05-10T23:25:54;7.97;;;3.42;;
55663;SDS011;41540;57.880;12.164;2023-05-10T23:35:57;15.50;;;3.22;;
55663;SDS011;41540;57.880;12.164;2023-05-10T23:45:58;6.43;;;3.33;;
55663;SDS011;41540;57.880;12.164;2023-05-10T23:55:58;3.38;;;2.88;;
